sensor_id;sensor_type;location;lat;lon;timestamp;pressure;altitude;pressure_sealevel;temperature;humidity
13734;BME280;43298;52.560;13.508;2023-02-18T00:01:18;100870.50;;;7.20;100.00
13734;BME280;43298;52.560;13.508;2023-02-18T00:03:46;100874.75;;;7.21;100.00
13734;BME280;43298;52.560;13.508;2023-02-18T00:06:26;100869.63;;;7.19;100.00
13734;BME280;43298;52.560;13.508;2023-02-18T00:08:53;100867.13;;;7.18;100.00
13734;BME280;43298;52.560;13.508;2023-02-18T00:11:20;100873.25;;;7.12;100.00
13734;BME280;43298;52.560;13.508;2023-02-18T00:13:56;100856.84;;;7.18;100.00
13734;BME280;43298;52.560;13.508;2023-02-18T00:16:23;100863.06;;;7.09;100.00
13734;BME280;43298;52.560;13.508;2023-02-18T00:18:50;100862.84;;;7.17;100.00
13734;BME280;43298;52.560;13.508;2023-02-18T00:21:19;100874.03;;;7.16;100.00
13734;BME280;43298;52.560;13.508;2023-02-18T00:23:44;100875.16;;;7.04;100.00
13734;BME280;43298;52.560;13.508;2023-02-18T00:26:14;100872.63;;;7.03;100.00
13734;BME280;43298;52.560;13.508;2023-02-18T00:28:40;100887.41;;;6.95;100.00
13734;BME280;43298;52.560;13.508;2023-02-18T00:31:09;100889.81;;;7.02;100.00
13734;BME280;43298;52.560;13.508;2023-02-18T00:33:35;100879.66;;;6.96;100.00
13734;BME280;43298;52.560;13.508;2023-02-18T00:36:04;100887.53;;;6.90;100.00
13734;BME280;43298;52.560;13.508;2023-02-18T00:38:31;100879.09;;;6.85;100.00
13734;BME280;43298;52.560;13.508;2023-02-18T00:40:57;100888.63;;;6.80;100.00
13734;BME280;43298;52.560;13.508;2023-02-18T00:43:23;100887.84;;;6.77;100.00
13734;BME280;43298;52.560;13.508;2023-02-18T00:45:49;100893.91;;;6.74;100.00
13734;BME280;43298;52.560;13.508;2023-02-18T00:48:15;100897.16;;;6.82;100.00
13734;BME280;43298;52.560;13.508;2023-02-18T00:50:41;100887.66;;;6.86;100.00
13734;BME280;43298;52.560;13.508;2023-02-18T00:53:07;100900.75;;;6.75;100.00
13734;BME280;43298;52.560;13.508;2023-02-18T00:55:44;100898.13;;;6.77;100.00
13734;BME280;43298;52.560;13.508;2023-02-18T00:58:12;100895.63;;;6.74;100.00
13734;BME280;43298;52.560;13.508;2023-02-18T01:00:38;100905.22;;;6.67;100.00
13734;BME280;43298;52.560;13.508;2023-02-18T01:03:05;100914.75;;;6.62;100.00
13734;BME280;43298;52.560;13.508;2023-02-18T01:05:34;100893.13;;;6.71;100.00
13734;BME280;43298;52.560;13.508;2023-02-18T01:08:00;100899.94;;;6.73;100.00
13734;BME280;43298;52.560;13.508;2023-02-18T01:10:26;100896.69;;;6.65;100.00
13734;BME280;43298;52.560;13.508;2023-02-18T01:12:52;100897.63;;;6.61;100.00
13734;BME280;43298;52.560;13.508;2023-02-18T01:15:20;100883.91;;;6.62;100.00
13734;BME280;43298;52.560;13.508;2023-02-18T01:17:46;100880.75;;;6.51;100.00
13734;BME280;43298;52.560;13.508;2023-02-18T01:20:13;100884.91;;;6.57;100.00
13734;BME280;43298;52.560;13.508;2023-02-18T01:22:39;100894.34;;;6.56;100.00
13734;BME280;43298;52.560;13.508;2023-02-18T01:25:06;100879.94;;;6.49;100.00
13734;BME280;43298;52.560;13.508;2023-02-18T01:27:33;100899.53;;;6.53;100.00
13734;BME280;43298;52.560;13.508;2023-02-18T01:29:58;100892.88;;;6.45;100.00
13734;BME280;43298;52.560;13.508;2023-02-18T01:32:24;100901.44;;;6.45;100.00
13734;BME280;43298;52.560;13.508;2023-02-18T01:34:50;100890.91;;;6.56;100.00
13734;BME280;43298;52.560;13.508;2023-02-18T01:37:16;100889.50;;;6.43;100.00
13734;BME280;43298;52.560;13.508;2023-02-18T01:39:42;100883.38;;;6.48;100.00
13734;BME280;43298;52.560;13.508;2023-02-18T01:42:22;100884.22;;;6.49;100.00
13734;BME280;43298;52.560;13.508;2023-02-18T01:44:48;100887.63;;;6.51;100.00
13734;BME280;43298;52.560;13.508;2023-02-18T01:47:15;100887.59;;;6.52;100.00
13734;BME280;43298;52.560;13.508;2023-02-18T01:49:43;100887.06;;;6.38;100.00
13734;BME280;43298;52.560;13.508;2023-02-18T01:52:25;100886.09;;;6.42;100.00
13734;BME280;43298;52.560;13.508;2023-02-18T01:54:55;100892.13;;;6.41;100.00
13734;BME280;43298;52.560;13.508;2023-02-18T01:57:28;100888.84;;;6.35;100.00
13734;BME280;43298;52.560;13.508;2023-02-18T02:00:03;100890.47;;;6.37;100.00
13734;BME280;43298;52.560;13.508;2023-02-18T02:02:32;100898.31;;;6.33;100.00
13734;BME280;43298;52.560;13.508;2023-02-18T02:05:00;100885.22;;;6.43;100.00
13734;BME280;43298;52.560;13.508;2023-02-18T02:07:27;100888.72;;;6.39;100.00
13734;BME280;43298;52.560;13.508;2023-02-18T02:09:54;100880.97;;;6.42;100.00
13734;BME280;43298;52.560;13.508;2023-02-18T02:13:02;100898.88;;;6.45;100.00
13734;BME280;43298;52.560;13.508;2023-02-18T02:15:55;100896.31;;;6.45;100.00
13734;BME280;43298;52.560;13.508;2023-02-18T02:18:58;100877.53;;;6.42;100.00
13734;BME280;43298;52.560;13.508;2023-02-18T02:33:29;100894.03;;;6.32;100.00
13734;BME280;43298;52.560;13.508;2023-02-18T02:36:15;100905.88;;;6.37;100.00
13734;BME280;43298;52.560;13.508;2023-02-18T02:39:29;100899.84;;;6.41;100.00
13734;BME280;43298;52.560;13.508;2023-02-18T02:48:02;100899.28;;;6.27;100.00
13734;BME280;43298;52.560;13.508;2023-02-18T02:50:40;100900.06;;;6.31;100.00
13734;BME280;43298;52.560;13.508;2023-02-18T02:53:27;100895.03;;;6.24;100.00
13734;BME280;43298;52.560;13.508;2023-02-18T02:55:55;100894.97;;;6.28;100.00
13734;BME280;43298;52.560;13.508;2023-02-18T02:58:21;100900.97;;;6.28;100.00
13734;BME280;43298;52.560;13.508;2023-02-18T03:15:31;100906.19;;;6.23;100.00
13734;BME280;43298;52.560;13.508;2023-02-18T03:20:56;100900.31;;;6.18;100.00
13734;BME280;43298;52.560;13.508;2023-02-18T03:23:31;100901.22;;;6.16;100.00
13734;BME280;43298;52.560;13.508;2023-02-18T03:26:03;100900.38;;;6.15;100.00
13734;BME280;43298;52.560;13.508;2023-02-18T03:28:30;100897.69;;;6.22;100.00
13734;BME280;43298;52.560;13.508;2023-02-18T03:31:06;100901.22;;;6.16;100.00
13734;BME280;43298;52.560;13.508;2023-02-18T03:33:46;100895.34;;;6.11;100.00
13734;BME280;43298;52.560;13.508;2023-02-18T03:36:14;100895.13;;;6.22;100.00
13734;BME280;43298;52.560;13.508;2023-02-18T03:39:03;100890.75;;;6.25;100.00
13734;BME280;43298;52.560;13.508;2023-02-18T03:41:30;100883.88;;;6.27;100.00
13734;BME280;43298;52.560;13.508;2023-02-18T03:44:02;100883.72;;;6.33;100.00
13734;BME280;43298;52.560;13.508;2023-02-18T03:46:29;100897.38;;;6.35;100.00
13734;BME280;43298;52.560;13.508;2023-02-18T03:48:56;100894.00;;;6.33;100.00
13734;BME280;43298;52.560;13.508;2023-02-18T03:51:22;100895.88;;;6.27;100.00
13734;BME280;43298;52.560;13.508;2023-02-18T03:53:48;100897.84;;;6.14;100.00
13734;BME280;43298;52.560;13.508;2023-02-18T03:56:14;100895.13;;;6.22;100.00
13734;BME280;43298;52.560;13.508;2023-02-18T03:58:40;100907.78;;;6.29;100.00
13734;BME280;43298;52.560;13.508;2023-02-18T04:01:05;100902.84;;;6.22;100.00
13734;BME280;43298;52.560;13.508;2023-02-18T04:03:32;100907.13;;;6.21;100.00
13734;BME280;43298;52.560;13.508;2023-02-18T04:05:58;100909.56;;;6.27;100.00
13734;BME280;43298;52.560;13.508;2023-02-18T04:08:24;100913.91;;;6.23;100.00
13734;BME280;43298;52.560;13.508;2023-02-18T04:10:50;100906.50;;;6.10;100.00
13734;BME280;43298;52.560;13.508;2023-02-18T04:13:16;100909.00;;;6.13;100.00
13734;BME280;43298;52.560;13.508;2023-02-18T04:15:44;100919.84;;;6.26;100.00
13734;BME280;43298;52.560;13.508;2023-02-18T04:18:10;100913.13;;;6.20;100.00
13734;BME280;43298;52.560;13.508;2023-02-18T04:20:36;100915.59;;;6.23;100.00
13734;BME280;43298;52.560;13.508;2023-02-18T04:23:03;100906.19;;;6.23;100.00
13734;BME280;43298;52.560;13.508;2023-02-18T04:25:30;100919.06;;;6.22;100.00
13734;BME280;43298;52.560;13.508;2023-02-18T04:27:56;100923.53;;;6.14;100.00
13734;BME280;43298;52.560;13.508;2023-02-18T04:30:22;100919.31;;;6.11;100.00
13734;BME280;43298;52.560;13.508;2023-02-18T04:32:48;100943.34;;;6.07;100.00
13734;BME280;43298;52.560;13.508;2023-02-18T04:35:14;100934.75;;;6.08;100.00
13734;BME280;43298;52.560;13.508;2023-02-18T04:37:39;100930.53;;;6.06;100.00
13734;BME280;43298;52.560;13.508;2023-02-18T04:40:06;100937.25;;;6.13;100.00
13734;BME280;43298;52.560;13.508;2023-02-18T04:42:32;100939.03;;;6.08;100.00
13734;BME280;43298;52.560;13.508;2023-02-18T04:44:58;100946.75;;;6.08;100.00
13734;BME280;43298;52.560;13.508;2023-02-18T04:47:24;100947.56;;;6.10;100.00
13734;BME280;43298;52.560;13.508;2023-02-18T04:49:50;100940.03;;;6.01;100.00
13734;BME280;43298;52.560;13.508;2023-02-18T04:52:15;100940.88;;;6.01;100.00
13734;BME280;43298;52.560;13.508;2023-02-18T04:54:42;100947.72;;;6.02;100.00
13734;BME280;43298;52.560;13.508;2023-02-18T04:57:07;100937.47;;;6.01;100.00
13734;BME280;43298;52.560;13.508;2023-02-18T04:59:33;100945.38;;;5.92;100.00
13734;BME280;43298;52.560;13.508;2023-02-18T05:01:59;100943.84;;;5.80;100.00
13734;BME280;43298;52.560;13.508;2023-02-18T05:04:25;100947.03;;;5.93;100.00
13734;BME280;43298;52.560;13.508;2023-02-18T05:06:50;100947.69;;;6.04;100.00
13734;BME280;43298;52.560;13.508;2023-02-18T05:09:16;100948.56;;;6.03;100.00
13734;BME280;43298;52.560;13.508;2023-02-18T05:11:43;100940.91;;;6.00;100.00
13734;BME280;43298;52.560;13.508;2023-02-18T05:14:09;100941.84;;;5.96;100.00
13734;BME280;43298;52.560;13.508;2023-02-18T05:16:35;100940.88;;;6.03;100.00
13734;BME280;43298;52.560;13.508;2023-02-18T05:19:01;100939.91;;;6.08;100.00
13734;BME280;43298;52.560;13.508;2023-02-18T05:21:26;100930.41;;;6.12;100.00
13734;BME280;43298;52.560;13.508;2023-02-18T05:23:52;100939.94;;;6.07;100.00
13734;BME280;43298;52.560;13.508;2023-02-18T05:26:18;100940.00;;;6.02;100.00
13734;BME280;43298;52.560;13.508;2023-02-18T05:28:44;100935.69;;;6.04;100.00
13734;BME280;43298;52.560;13.508;2023-02-18T05:31:10;100931.47;;;6.02;100.00
13734;BME280;43298;52.560;13.508;2023-02-18T05:33:35;100920.28;;;6.06;100.00
13734;BME280;43298;52.560;13.508;2023-02-18T05:36:01;100914.88;;;6.18;100.00
13734;BME280;43298;52.560;13.508;2023-02-18T05:38:27;100905.53;;;6.15;100.00
13734;BME280;43298;52.560;13.508;2023-02-18T05:40:54;100912.25;;;6.21;100.00
13734;BME280;43298;52.560;13.508;2023-02-18T05:43:19;100920.66;;;6.28;100.00
13734;BME280;43298;52.560;13.508;2023-02-18T05:45:45;100915.53;;;6.28;100.00
13734;BME280;43298;52.560;13.508;2023-02-18T05:48:11;100910.19;;;6.37;100.00
13734;BME280;43298;52.560;13.508;2023-02-18T05:50:37;100912.69;;;6.41;100.00
13734;BME280;43298;52.560;13.508;2023-02-18T05:53:03;100916.97;;;6.41;100.00
13734;BME280;43298;52.560;13.508;2023-02-18T05:55:29;100917.75;;;6.43;100.00
13734;BME280;43298;52.560;13.508;2023-02-18T05:57:54;100924.47;;;6.48;100.00
13734;BME280;43298;52.560;13.508;2023-02-18T06:00:20;100921.91;;;6.48;100.00
13734;BME280;43298;52.560;13.508;2023-02-18T06:02:46;100922.00;;;6.45;100.00
13734;BME280;43298;52.560;13.508;2023-02-18T06:05:12;100925.25;;;6.53;100.00
13734;BME280;43298;52.560;13.508;2023-02-18T06:07:38;100932.06;;;6.54;100.00
13734;BME280;43298;52.560;13.508;2023-02-18T06:10:05;100936.31;;;6.55;100.00
13734;BME280;43298;52.560;13.508;2023-02-18T06:12:31;100922.59;;;6.56;100.00
13734;BME280;43298;52.560;13.508;2023-02-18T06:14:57;100927.81;;;6.53;100.00
13734;BME280;43298;52.560;13.508;2023-02-18T06:17:23;100920.75;;;6.61;100.00
13734;BME280;43298;52.560;13.508;2023-02-18T06:19:49;100927.50;;;6.67;100.00
13734;BME280;43298;52.560;13.508;2023-02-18T06:22:14;100919.97;;;6.59;100.00
13734;BME280;43298;52.560;13.508;2023-02-18T06:24:40;100923.31;;;6.63;100.00
13734;BME280;43298;52.560;13.508;2023-02-18T06:27:06;100918.84;;;6.69;100.00
13734;BME280;43298;52.560;13.508;2023-02-18T06:29:32;100925.78;;;6.67;100.00
13734;BME280;43298;52.560;13.508;2023-02-18T06:32:00;100923.94;;;6.72;100.00
13734;BME280;43298;52.560;13.508;2023-02-18T06:34:26;100925.59;;;6.75;100.00
13734;BME280;43298;52.560;13.508;2023-02-18T06:36:52;100911.94;;;6.73;100.00
13734;BME280;43298;52.560;13.508;2023-02-18T06:39:18;100911.84;;;6.77;100.00
13734;BME280;43298;52.560;13.508;2023-02-18T06:41:44;100914.50;;;6.73;100.00
13734;BME280;43298;52.560;13.508;2023-02-18T06:44:10;100923.78;;;6.80;100.00
13734;BME280;43298;52.560;13.508;2023-02-18T06:46:36;100909.16;;;6.80;100.00
13734;BME280;43298;52.560;13.508;2023-02-18T06:49:03;100911.72;;;6.82;100.00
13734;BME280;43298;52.560;13.508;2023-02-18T06:51:28;100906.50;;;6.85;100.00
13734;BME280;43298;52.560;13.508;2023-02-18T06:53:54;100904.66;;;6.91;100.00
13734;BME280;43298;52.560;13.508;2023-02-18T06:56:20;100905.53;;;6.89;100.00
13734;BME280;43298;52.560;13.508;2023-02-18T06:58:46;100912.19;;;6.97;100.00
13734;BME280;43298;52.560;13.508;2023-02-18T07:01:12;100903.69;;;6.95;100.00
13734;BME280;43298;52.560;13.508;2023-02-18T07:03:38;100909.59;;;6.99;100.00
13734;BME280;43298;52.560;13.508;2023-02-18T07:06:04;100907.78;;;7.04;100.00
13734;BME280;43298;52.560;13.508;2023-02-18T07:08:29;100912.88;;;7.05;100.00
13734;BME280;43298;52.560;13.508;2023-02-18T07:10:57;100907.72;;;7.05;100.00
13734;BME280;43298;52.560;13.508;2023-02-18T07:13:23;100898.97;;;7.12;100.00
13734;BME280;43298;52.560;13.508;2023-02-18T07:15:49;100895.50;;;7.15;100.00
13734;BME280;43298;52.560;13.508;2023-02-18T07:18:14;100898.03;;;7.16;100.00
13734;BME280;43298;52.560;13.508;2023-02-18T07:20:40;100889.38;;;7.19;100.00
13734;BME280;43298;52.560;13.508;2023-02-18T07:23:06;100895.34;;;7.19;100.00
13734;BME280;43298;52.560;13.508;2023-02-18T07:25:32;100888.41;;;7.23;100.00
13734;BME280;43298;52.560;13.508;2023-02-18T07:27:57;100883.28;;;7.23;100.00
13734;BME280;43298;52.560;13.508;2023-02-18T07:30:23;100882.38;;;7.24;100.00
13734;BME280;43298;52.560;13.508;2023-02-18T07:32:49;100880.50;;;7.30;100.00
13734;BME280;43298;52.560;13.508;2023-02-18T07:35:16;100894.13;;;7.34;100.00
13734;BME280;43298;52.560;13.508;2023-02-18T07:37:46;100897.47;;;7.37;100.00
13734;BME280;43298;52.560;13.508;2023-02-18T07:40:17;100884.66;;;7.36;100.00
13734;BME280;43298;52.560;13.508;2023-02-18T07:42:43;100886.13;;;7.44;100.00
13734;BME280;43298;52.560;13.508;2023-02-18T07:45:10;100882.59;;;7.48;100.00
13734;BME280;43298;52.560;13.508;2023-02-18T07:47:36;100884.19;;;7.52;100.00
13734;BME280;43298;52.560;13.508;2023-02-18T07:50:02;100873.84;;;7.55;100.00
13734;BME280;43298;52.560;13.508;2023-02-18T07:52:28;100872.91;;;7.58;100.00
13734;BME280;43298;52.560;13.508;2023-02-18T07:54:54;100876.25;;;7.60;100.00
13734;BME280;43298;52.560;13.508;2023-02-18T07:57:19;100866.81;;;7.60;100.00
13734;BME280;43298;52.560;13.508;2023-02-18T07:59:45;100865.09;;;7.61;100.00
13734;BME280;43298;52.560;13.508;2023-02-18T08:02:21;100864.25;;;7.60;100.00
13734;BME280;43298;52.560;13.508;2023-02-18T08:04:47;100852.34;;;7.56;100.00
13734;BME280;43298;52.560;13.508;2023-02-18T08:07:16;100857.53;;;7.55;100.00
13734;BME280;43298;52.560;13.508;2023-02-18T08:09:42;100856.53;;;7.60;100.00
13734;BME280;43298;52.560;13.508;2023-02-18T08:12:08;100841.81;;;7.64;100.00
13734;BME280;43298;52.560;13.508;2023-02-18T08:14:34;100840.19;;;7.61;100.00
13734;BME280;43298;52.560;13.508;2023-02-18T08:16:59;100834.66;;;7.44;100.00
13734;BME280;43298;52.560;13.508;2023-02-18T08:19:25;100832.38;;;7.34;100.00
13734;BME280;43298;52.560;13.508;2023-02-18T08:21:51;100828.19;;;7.31;100.00
13734;BME280;43298;52.560;13.508;2023-02-18T08:24:17;100827.28;;;7.32;100.00
13734;BME280;43298;52.560;13.508;2023-02-18T08:26:43;100824.63;;;7.35;100.00
13734;BME280;43298;52.560;13.508;2023-02-18T08:29:08;100813.72;;;7.27;100.00
13734;BME280;43298;52.560;13.508;2023-02-18T08:31:34;100808.69;;;7.23;100.00
13734;BME280;43298;52.560;13.508;2023-02-18T08:34:01;100812.16;;;7.22;100.00
13734;BME280;43298;52.560;13.508;2023-02-18T08:36:28;100803.59;;;7.21;100.00
13734;BME280;43298;52.560;13.508;2023-02-18T08:38:56;100811.34;;;7.20;100.00
13734;BME280;43298;52.560;13.508;2023-02-18T08:41:22;100806.31;;;7.15;100.00
13734;BME280;43298;52.560;13.508;2023-02-18T08:43:48;100808.09;;;7.13;100.00
13734;BME280;43298;52.560;13.508;2023-02-18T08:46:15;100804.72;;;7.11;100.00
13734;BME280;43298;52.560;13.508;2023-02-18T08:48:41;100807.25;;;7.13;100.00
13734;BME280;43298;52.560;13.508;2023-02-18T08:51:20;100801.34;;;7.09;100.00
13734;BME280;43298;52.560;13.508;2023-02-18T08:53:48;100807.56;;;7.01;100.00
13734;BME280;43298;52.560;13.508;2023-02-18T08:56:15;100803.44;;;6.95;100.00
13734;BME280;43298;52.560;13.508;2023-02-18T08:58:41;100802.84;;;6.86;100.00
13734;BME280;43298;52.560;13.508;2023-02-18T09:01:10;100791.03;;;6.79;100.00
13734;BME280;43298;52.560;13.508;2023-02-18T09:03:37;100803.91;;;6.77;100.00
13734;BME280;43298;52.560;13.508;2023-02-18T09:06:04;100801.56;;;6.68;100.00
13734;BME280;43298;52.560;13.508;2023-02-18T09:08:30;100800.78;;;6.66;100.00
13734;BME280;43298;52.560;13.508;2023-02-18T09:10:58;100792.28;;;6.63;100.00
13734;BME280;43298;52.560;13.508;2023-02-18T09:13:24;100792.34;;;6.60;100.00
13734;BME280;43298;52.560;13.508;2023-02-18T09:16:06;100792.41;;;6.57;100.00
13734;BME280;43298;52.560;13.508;2023-02-18T09:18:33;100781.34;;;6.55;100.00
13734;BME280;43298;52.560;13.508;2023-02-18T09:21:01;100776.47;;;6.44;100.00
13734;BME280;43298;52.560;13.508;2023-02-18T09:23:29;100774.56;;;6.52;100.00
13734;BME280;43298;52.560;13.508;2023-02-18T09:25:56;100760.88;;;6.52;100.00
13734;BME280;43298;52.560;13.508;2023-02-18T09:28:23;100756.56;;;6.54;100.00
13734;BME280;43298;52.560;13.508;2023-02-18T09:30:50;100759.22;;;6.49;100.00
13734;BME280;43298;52.560;13.508;2023-02-18T09:33:16;100768.66;;;6.49;100.00
13734;BME280;43298;52.560;13.508;2023-02-18T09:35:44;100749.72;;;6.53;100.00
13734;BME280;43298;52.560;13.508;2023-02-18T09:38:13;100758.97;;;6.58;100.00
13734;BME280;43298;52.560;13.508;2023-02-18T09:40:44;100753.06;;;6.56;100.00
13734;BME280;43298;52.560;13.508;2023-02-18T09:43:37;100742.75;;;6.58;100.00
13734;BME280;43298;52.560;13.508;2023-02-18T09:46:22;100738.19;;;6.69;100.00
13734;BME280;43298;52.560;13.508;2023-02-18T09:48:51;100722.09;;;6.61;100.00
13734;BME280;43298;52.560;13.508;2023-02-18T09:51:18;100718.28;;;6.75;100.00
13734;BME280;43298;52.560;13.508;2023-02-18T09:53:45;100697.75;;;6.75;100.00
13734;BME280;43298;52.560;13.508;2023-02-18T09:56:22;100703.88;;;6.70;100.00
13734;BME280;43298;52.560;13.508;2023-02-18T09:58:51;100685.16;;;6.66;100.00
13734;BME280;43298;52.560;13.508;2023-02-18T10:01:31;100677.53;;;6.63;100.00
13734;BME280;43298;52.560;13.508;2023-02-18T10:04:09;100674.06;;;6.64;100.00
13734;BME280;43298;52.560;13.508;2023-02-18T10:06:37;100668.03;;;6.65;100.00
13734;BME280;43298;52.560;13.508;2023-02-18T10:09:34;100662.94;;;6.64;100.00
13734;BME280;43298;52.560;13.508;2023-02-18T10:12:16;100651.06;;;6.60;100.00
13734;BME280;43298;52.560;13.508;2023-02-18T10:14:51;100656.97;;;6.63;100.00
13734;BME280;43298;52.560;13.508;2023-02-18T10:17:18;100664.97;;;6.51;100.00
13734;BME280;43298;52.560;13.508;2023-02-18T10:19:47;100653.84;;;6.52;100.00
13734;BME280;43298;52.560;13.508;2023-02-18T10:22:15;100637.47;;;6.56;100.00
13734;BME280;43298;52.560;13.508;2023-02-18T10:24:58;100633.38;;;6.49;100.00
13734;BME280;43298;52.560;13.508;2023-02-18T10:27:31;100629.75;;;6.56;100.00
13734;BME280;43298;52.560;13.508;2023-02-18T10:30:47;100615.16;;;6.57;100.00
13734;BME280;43298;52.560;13.508;2023-02-18T10:33:41;100591.78;;;6.67;100.00
13734;BME280;43298;52.560;13.508;2023-02-18T10:36:29;100576.31;;;6.69;100.00
13734;BME280;43298;52.560;13.508;2023-02-18T10:45:27;100543.28;;;6.86;100.00
13734;BME280;43298;52.560;13.508;2023-02-18T10:50:59;100522.06;;;6.78;100.00
13734;BME280;43298;52.560;13.508;2023-02-18T10:53:36;100525.72;;;6.71;100.00
13734;BME280;43298;52.560;13.508;2023-02-18T10:56:05;100519.91;;;6.64;100.00
13734;BME280;43298;52.560;13.508;2023-02-18T10:58:42;100508.69;;;6.67;100.00
13734;BME280;43298;52.560;13.508;2023-02-18T11:01:19;100504.47;;;6.66;100.00
13734;BME280;43298;52.560;13.508;2023-02-18T11:03:51;100497.31;;;6.75;100.00
13734;BME280;43298;52.560;13.508;2023-02-18T11:06:47;100487.72;;;6.80;100.00
13734;BME280;43298;52.560;13.508;2023-02-18T11:09:45;100487.88;;;6.76;100.00
13734;BME280;43298;52.560;13.508;2023-02-18T11:12:22;100468.88;;;6.81;100.00
13734;BME280;43298;52.560;13.508;2023-02-18T11:15:17;100453.63;;;6.75;100.00
13734;BME280;43298;52.560;13.508;2023-02-18T11:17:48;100446.34;;;6.89;100.00
13734;BME280;43298;52.560;13.508;2023-02-18T11:20:41;100432.63;;;6.89;100.00
13734;BME280;43298;52.560;13.508;2023-02-18T11:23:20;100424.00;;;6.91;100.00
13734;BME280;43298;52.560;13.508;2023-02-18T11:26:00;100425.91;;;6.85;100.00
13734;BME280;43298;52.560;13.508;2023-02-18T11:28:49;100420.78;;;6.85;100.00
13734;BME280;43298;52.560;13.508;2023-02-18T11:31:33;100394.91;;;6.91;100.00
13734;BME280;43298;52.560;13.508;2023-02-18T11:34:02;100412.19;;;6.86;100.00
13734;BME280;43298;52.560;13.508;2023-02-18T11:36:34;100406.22;;;6.85;100.00
13734;BME280;43298;52.560;13.508;2023-02-18T11:39:24;100393.28;;;6.88;100.00
13734;BME280;43298;52.560;13.508;2023-02-18T11:42:03;100377.91;;;6.87;100.00
13734;BME280;43298;52.560;13.508;2023-02-18T11:44:36;100381.09;;;6.93;100.00
13734;BME280;43298;52.560;13.508;2023-02-18T11:49:38;100357.97;;;6.93;100.00
13734;BME280;43298;52.560;13.508;2023-02-18T11:52:48;100372.00;;;6.83;100.00
13734;BME280;43298;52.560;13.508;2023-02-18T11:55:26;100365.28;;;6.79;100.00
13734;BME280;43298;52.560;13.508;2023-02-18T11:58:03;100326.41;;;6.90;100.00
13734;BME280;43298;52.560;13.508;2023-02-18T12:00:52;100328.66;;;6.99;100.00
13734;BME280;43298;52.560;13.508;2023-02-18T12:03:47;100331.97;;;7.02;100.00
13734;BME280;43298;52.560;13.508;2023-02-18T12:11:59;100309.69;;;7.27;100.00
13734;BME280;43298;52.560;13.508;2023-02-18T12:14:26;100308.66;;;7.31;100.00
13734;BME280;43298;52.560;13.508;2023-02-18T12:28:44;100295.75;;;7.79;100.00
13734;BME280;43298;52.560;13.508;2023-02-18T12:33:59;100275.72;;;7.87;100.00
13734;BME280;43298;52.560;13.508;2023-02-18T12:36:55;100273.50;;;7.99;100.00
13734;BME280;43298;52.560;13.508;2023-02-18T12:42:36;100254.50;;;8.25;100.00
13734;BME280;43298;52.560;13.508;2023-02-18T12:53:47;100242.13;;;8.94;100.00
13734;BME280;43298;52.560;13.508;2023-02-18T13:05:56;100218.91;;;9.52;100.00
13734;BME280;43298;52.560;13.508;2023-02-18T13:08:45;100203.72;;;9.64;100.00
13734;BME280;43298;52.560;13.508;2023-02-18T13:12:47;100196.16;;;9.78;100.00
13734;BME280;43298;52.560;13.508;2023-02-18T13:14:52;100197.94;;;9.95;100.00
13734;BME280;43298;52.560;13.508;2023-02-18T13:17:26;100190.41;;;10.09;100.00
13734;BME280;43298;52.560;13.508;2023-02-18T13:20:02;100204.00;;;10.12;100.00
13734;BME280;43298;52.560;13.508;2023-02-18T13:22:30;100191.91;;;10.13;100.00
13734;BME280;43298;52.560;13.508;2023-02-18T13:24:57;100200.50;;;10.13;100.00
13734;BME280;43298;52.560;13.508;2023-02-18T13:27:44;100203.00;;;10.15;100.00
13734;BME280;43298;52.560;13.508;2023-02-18T13:33:24;100209.88;;;10.16;100.00
13734;BME280;43298;52.560;13.508;2023-02-18T13:39:18;100199.53;;;10.16;100.00
13734;BME280;43298;52.560;13.508;2023-02-18T13:41:48;100195.09;;;10.18;100.00
13734;BME280;43298;52.560;13.508;2023-02-18T13:46:52;100180.84;;;10.28;100.00
13734;BME280;43298;52.560;13.508;2023-02-18T13:49:45;100180.63;;;10.32;100.00
13734;BME280;43298;52.560;13.508;2023-02-18T13:52:18;100164.69;;;10.40;100.00
13734;BME280;43298;52.560;13.508;2023-02-18T13:54:45;100169.06;;;10.39;100.00
13734;BME280;43298;52.560;13.508;2023-02-18T13:57:19;100167.41;;;10.38;100.00
13734;BME280;43298;52.560;13.508;2023-02-18T13:59:51;100169.88;;;10.40;100.00
13734;BME280;43298;52.560;13.508;2023-02-18T14:14:57;100166.53;;;10.38;100.00
13734;BME280;43298;52.560;13.508;2023-02-18T14:17:28;100165.03;;;10.34;100.00
13734;BME280;43298;52.560;13.508;2023-02-18T14:27:37;100181.44;;;10.33;100.00
13734;BME280;43298;52.560;13.508;2023-02-18T14:30:15;100184.00;;;10.33;100.00
13734;BME280;43298;52.560;13.508;2023-02-18T14:32:43;100187.38;;;10.35;100.00
13734;BME280;43298;52.560;13.508;2023-02-18T14:35:52;100183.13;;;10.34;100.00
13734;BME280;43298;52.560;13.508;2023-02-18T14:41:48;100165.19;;;10.31;100.00
13734;BME280;43298;52.560;13.508;2023-02-18T14:45:08;100179.09;;;10.28;100.00
13734;BME280;43298;52.560;13.508;2023-02-18T14:50:37;100168.28;;;10.37;100.00
13734;BME280;43298;52.560;13.508;2023-02-18T14:53:07;100193.69;;;10.46;100.00
13734;BME280;43298;52.560;13.508;2023-02-18T14:55:47;100193.63;;;10.48;100.00
13734;BME280;43298;52.560;13.508;2023-02-18T14:58:35;100197.34;;;10.42;100.00
13734;BME280;43298;52.560;13.508;2023-02-18T15:03:39;100196.78;;;10.36;100.00
13734;BME280;43298;52.560;13.508;2023-02-18T15:06:27;100206.25;;;10.37;100.00